Time;durP1;ratioP1;P1;durP2;ratioP2;P2;SDS_P1;SDS_P2;PMS_P1;PMS_P2;Temp;Humidity;BMP_temperature;BMP_pressure;BME280_temperature;BME280_humidity;BME280_pressure;Samples;Min_cycle;Max_cycle;Signal;HPM_P1;HPM_P2
2023/09/30 00:00:07;;;;;;;16.00;8.27;;;;;;;17.11;nan;95460.94;5052332;28;20206;-63
2023/09/30 00:02:34;;;;;;;16.20;9.40;;;;;;;17.18;nan;95469.97;5052552;28;20276;-63
2023/09/30 00:05:03;;;;;;;29.38;10.15;;;;;;;17.23;nan;95468.00;5052401;28;20259;-62
2023/09/30 00:07:30;;;;;;;13.55;9.82;;;;;;;17.22;nan;95464.63;5054379;28;20225;-64
2023/09/30 00:09:57;;;;;;;19.40;11.77;;;;;;;17.43;nan;95459.22;5052481;28;20198;-63
2023/09/30 00:12:23;;;;;;;19.27;15.00;;;;;;;17.43;nan;95464.38;5053651;28;20206;-64
2023/09/30 00:14:50;;;;;;;20.70;17.88;;;;;;;17.45;nan;95463.38;5043460;28;20634;-63
2023/09/30 00:17:18;;;;;;;13.93;9.00;;;;;;;17.38;nan;95462.03;5039117;28;20296;-58
2023/09/30 00:19:45;;;;;;;12.98;7.20;;;;;;;17.31;nan;95461.56;5016221;28;20204;-62
2023/09/30 00:22:12;;;;;;;12.50;6.80;;;;;;;17.28;nan;95460.91;5031312;28;20285;-64
2023/09/30 00:24:39;;;;;;;7.50;6.40;;;;;;;17.20;nan;95457.91;5042886;28;20210;-63
2023/09/30 00:27:05;;;;;;;11.48;6.88;;;;;;;17.17;nan;95464.03;5038411;28;20222;-62
2023/09/30 00:29:33;;;;;;;8.85;6.45;;;;;;;17.22;nan;95456.06;5034577;28;20227;-61
2023/09/30 00:32:00;;;;;;;14.43;7.72;;;;;;;17.34;nan;95460.53;5036077;28;20349;-63
2023/09/30 00:34:28;;;;;;;9.32;7.88;;;;;;;17.52;nan;95454.44;5036851;28;20297;-62
2023/09/30 00:36:54;;;;;;;13.30;7.20;;;;;;;17.53;nan;95445.81;5035707;28;20226;-63
2023/09/30 00:39:22;;;;;;;15.63;7.22;;;;;;;17.43;nan;95444.66;5037682;28;20232;-60
2023/09/30 00:41:49;;;;;;;10.23;6.65;;;;;;;17.32;nan;95449.56;5023467;28;20210;-63
2023/09/30 00:44:15;;;;;;;8.38;7.55;;;;;;;17.28;nan;95450.63;5030977;28;20235;-63
2023/09/30 00:46:42;;;;;;;11.20;8.38;;;;;;;17.46;nan;95454.75;5031067;28;20257;-63
2023/09/30 00:49:10;;;;;;;13.65;7.82;;;;;;;17.49;nan;95452.03;5036315;28;20208;-64
2023/09/30 00:51:39;;;;;;;10.30;7.40;;;;;;;17.58;nan;95458.38;5032253;28;20214;-63
2023/09/30 00:54:06;;;;;;;7.95;7.22;;;;;;;17.56;nan;95444.81;5033316;28;20380;-63
2023/09/30 00:56:33;;;;;;;16.17;8.38;;;;;;;17.64;nan;95443.50;5031374;28;20303;-62
2023/09/30 00:59:00;;;;;;;11.15;7.53;;;;;;;17.59;nan;95445.44;5031463;28;20212;-62
2023/09/30 01:01:27;;;;;;;9.75;8.07;;;;;;;17.57;nan;95442.13;5036723;28;20690;-63
2023/09/30 01:03:54;;;;;;;15.73;9.13;;;;;;;17.71;nan;95448.31;5037408;28;20204;-63
2023/09/30 01:06:21;;;;;;;9.13;7.50;;;;;;;17.62;nan;95440.16;5035413;28;20285;-63
2023/09/30 01:08:49;;;;;;;13.77;9.95;;;;;;;17.72;nan;95445.66;5031769;28;20203;-63
2023/09/30 01:11:16;;;;;;;13.68;8.15;;;;;;;17.72;nan;95442.25;5034614;28;20270;-62
2023/09/30 01:13:44;;;;;;;10.18;7.93;;;;;;;17.68;nan;95436.44;5031857;28;20224;-63
2023/09/30 01:16:11;;;;;;;18.35;8.48;;;;;;;17.60;nan;95436.84;5031646;28;20218;-62
2023/09/30 01:18:40;;;;;;;9.90;8.32;;;;;;;17.58;nan;95442.97;5034718;28;20269;-63
2023/09/30 01:21:08;;;;;;;17.85;8.77;;;;;;;17.65;nan;95434.88;5034385;28;20207;-64
2023/09/30 01:23:36;;;;;;;8.43;7.63;;;;;;;17.84;nan;95431.28;5033135;28;20203;-63
2023/09/30 01:26:05;;;;;;;15.73;7.63;;;;;;;17.83;nan;95445.03;5035473;28;20285;-63
2023/09/30 01:28:32;;;;;;;13.88;7.97;;;;;;;17.80;nan;95437.53;5030258;28;20275;-62
2023/09/30 01:30:59;;;;;;;8.60;7.45;;;;;;;17.64;nan;95440.06;5031790;28;20219;-62
2023/09/30 01:33:26;;;;;;;12.50;8.02;;;;;;;17.66;nan;95440.84;5027294;28;20660;-63
2023/09/30 01:35:52;;;;;;;11.98;8.05;;;;;;;17.86;nan;95439.72;5036177;28;20712;-63
2023/09/30 01:38:19;;;;;;;12.52;7.75;;;;;;;17.81;nan;95440.00;5032672;28;20231;-64
2023/09/30 01:40:48;;;;;;;10.68;7.68;;;;;;;17.89;nan;95445.53;5036261;28;21459;-63
2023/09/30 01:43:15;;;;;;;9.98;7.97;;;;;;;17.97;nan;95437.41;5031557;28;20284;-62
2023/09/30 01:45:42;;;;;;;12.93;8.00;;;;;;;17.97;nan;95434.81;5028479;28;20233;-61
2023/09/30 01:48:10;;;;;;;12.30;8.15;;;;;;;17.90;nan;95438.66;5032937;28;20229;-62
2023/09/30 01:50:37;;;;;;;12.15;7.78;;;;;;;17.83;nan;95443.28;5030293;28;20357;-62
2023/09/30 01:53:04;;;;;;;8.55;7.80;;;;;;;17.79;nan;95435.88;5028926;28;20289;-62
2023/09/30 01:55:30;;;;;;;14.27;8.68;;;;;;;17.91;nan;95433.41;5034182;28;20203;-61
2023/09/30 01:57:58;;;;;;;11.23;7.38;;;;;;;17.78;nan;95439.34;5041870;28;20226;-63
2023/09/30 02:00:26;;;;;;;9.32;7.38;;;;;;;17.76;nan;95438.59;5043619;28;20227;-62
2023/09/30 02:02:52;;;;;;;17.10;9.05;;;;;;;17.75;nan;95434.38;5038752;28;20211;-64
2023/09/30 02:05:19;;;;;;;12.63;8.20;;;;;;;17.63;nan;95431.53;5037886;28;20277;-63
2023/09/30 02:07:46;;;;;;;14.85;10.05;;;;;;;17.50;nan;95430.56;5032466;28;20211;-63
2023/09/30 02:10:12;;;;;;;12.30;10.77;;;;;;;17.41;nan;95436.19;5031712;28;20200;-64
2023/09/30 02:12:39;;;;;;;17.27;8.20;;;;;;;17.36;nan;95427.91;5032162;28;20200;-63
2023/09/30 02:15:08;;;;;;;13.30;9.13;;;;;;;17.26;nan;95432.72;5033742;28;20223;-64
2023/09/30 02:17:35;;;;;;;9.93;8.60;;;;;;;17.14;nan;95433.38;5029865;28;20240;-65
2023/09/30 02:20:05;;;;;;;11.15;7.45;;;;;;;17.15;nan;95432.44;5029741;28;20214;-62
2023/09/30 02:22:33;;;;;;;16.35;8.48;;;;;;;16.98;nan;95433.34;5030111;28;20208;-62
2023/09/30 02:25:00;;;;;;;12.48;8.50;;;;;;;16.97;nan;95436.00;5034494;28;21037;-62
2023/09/30 02:27:26;;;;;;;13.55;8.27;;;;;;;16.86;nan;95431.41;5030440;28;20732;-65
2023/09/30 02:29:53;;;;;;;12.20;8.18;;;;;;;16.82;nan;95447.09;5032062;28;20237;-66
2023/09/30 02:32:22;;;;;;;11.43;7.63;;;;;;;16.78;nan;95443.84;5032357;28;20224;-65
2023/09/30 02:34:50;;;;;;;12.18;8.15;;;;;;;16.77;nan;95442.19;5031344;28;20224;-65
2023/09/30 02:37:18;;;;;;;15.52;8.75;;;;;;;16.73;nan;95437.28;5031250;28;21596;-67
2023/09/30 02:39:44;;;;;;;17.17;9.23;;;;;;;16.58;nan;95439.69;5029745;28;20195;-66
2023/09/30 02:42:11;;;;;;;10.20;7.97;;;;;;;16.57;nan;95442.34;5034061;28;20226;-63
2023/09/30 02:44:38;;;;;;;10.65;7.95;;;;;;;16.50;nan;95444.38;5033748;28;20241;-66
2023/09/30 02:47:05;;;;;;;12.05;7.53;;;;;;;16.45;nan;95442.94;5037749;28;20219;-67
2023/09/30 02:49:34;;;;;;;10.73;7.88;;;;;;;16.43;nan;95439.63;5030633;28;20325;-65
2023/09/30 02:52:01;;;;;;;11.07;7.88;;;;;;;16.36;nan;95433.16;5031021;28;20208;-65
2023/09/30 02:54:28;;;;;;;11.52;8.70;;;;;;;16.31;nan;95439.38;5029346;28;20256;-66
2023/09/30 02:56:55;;;;;;;11.40;8.27;;;;;;;16.27;nan;95445.53;5032698;28;20597;-66
2023/09/30 02:59:22;;;;;;;15.85;8.30;;;;;;;16.23;nan;95436.34;5033176;28;20257;-66
2023/09/30 03:01:48;;;;;;;10.55;7.30;;;;;;;16.31;nan;95438.53;5032914;28;20199;-66
2023/09/30 03:04:18;;;;;;;12.43;7.05;;;;;;;16.25;nan;95433.69;5030815;28;20199;-66
2023/09/30 03:06:48;;;;;;;11.88;7.05;;;;;;;16.16;nan;95445.22;5034122;28;20235;-66
2023/09/30 03:09:15;;;;;;;14.45;7.70;;;;;;;16.08;nan;95441.41;5031460;28;20226;-63
2023/09/30 03:11:42;;;;;;;13.27;7.78;;;;;;;16.06;nan;95443.22;5035085;28;20282;-65
2023/09/30 03:14:10;;;;;;;9.70;7.43;;;;;;;15.93;nan;95440.41;5036857;28;20231;-65
2023/09/30 03:16:38;;;;;;;12.65;7.65;;;;;;;16.00;nan;95441.78;5038152;28;20200;-65
2023/09/30 03:19:08;;;;;;;15.02;9.40;;;;;;;15.97;nan;95442.75;5029356;28;20696;-65
2023/09/30 03:21:35;;;;;;;15.77;8.48;;;;;;;15.93;nan;95437.84;5032293;28;20207;-65
2023/09/30 03:24:04;;;;;;;17.15;8.60;;;;;;;15.93;nan;95436.09;5030930;28;20332;-64
2023/09/30 03:26:30;;;;;;;12.50;8.93;;;;;;;15.97;nan;95447.03;5031951;28;20227;-62
2023/09/30 03:28:57;;;;;;;14.55;8.82;;;;;;;15.94;nan;95440.31;5031727;28;20199;-65
2023/09/30 03:31:25;;;;;;;12.35;8.60;;;;;;;15.87;nan;95438.94;5032446;28;20277;-67
2023/09/30 03:33:53;;;;;;;17.27;8.77;;;;;;;15.85;nan;95439.94;5035823;28;20587;-65
2023/09/30 03:36:20;;;;;;;16.98;8.57;;;;;;;15.75;nan;95436.16;5030857;28;20673;-66
2023/09/30 03:38:47;;;;;;;9.75;8.38;;;;;;;15.66;nan;95437.41;5033619;28;20238;-65
2023/09/30 03:41:15;;;;;;;10.85;7.78;;;;;;;15.67;nan;95439.09;5033495;28;20203;-66
2023/09/30 03:43:41;;;;;;;12.35;7.50;;;;;;;15.65;nan;95436.59;5035039;28;20192;-63
2023/09/30 03:46:08;;;;;;;11.27;7.25;;;;;;;15.75;nan;95438.72;5037795;28;20215;-63
2023/09/30 03:48:38;;;;;;;13.35;8.75;;;;;;;15.74;nan;95432.78;5029010;28;20235;-66
2023/09/30 03:51:09;;;;;;;11.65;8.43;;;;;;;15.80;nan;95434.22;5029045;28;20203;-64
2023/09/30 03:53:36;;;;;;;15.82;8.27;;;;;;;15.81;nan;95433.31;5029979;28;20264;-65
2023/09/30 03:56:03;;;;;;;9.88;8.50;;;;;;;15.76;nan;95430.97;5033545;28;20312;-63
2023/09/30 03:58:32;;;;;;;14.40;9.00;;;;;;;15.65;nan;95426.34;5027916;28;20204;-64
2023/09/30 04:01:00;;;;;;;14.65;8.50;;;;;;;15.71;nan;95435.47;5032649;28;20714;-64
2023/09/30 04:03:27;;;;;;;13.55;8.45;;;;;;;15.69;nan;95441.56;5030331;28;20202;-61
2023/09/30 04:05:53;;;;;;;11.55;9.60;;;;;;;15.65;nan;95444.28;5032165;28;20222;-67
2023/09/30 04:08:22;;;;;;;16.10;8.02;;;;;;;15.69;nan;95441.56;5032859;28;20361;-66
2023/09/30 04:10:49;;;;;;;19.08;8.77;;;;;;;15.56;nan;95442.16;5033118;28;20199;-66
2023/09/30 04:13:16;;;;;;;12.23;8.18;;;;;;;15.62;nan;95441.84;5035817;28;20206;-65
2023/09/30 04:15:46;;;;;;;18.23;9.65;;;;;;;15.60;nan;95446.22;5037371;28;20730;-66
2023/09/30 04:18:13;;;;;;;10.32;9.10;;;;;;;15.70;nan;95445.78;5032295;28;20210;-64
2023/09/30 04:20:40;;;;;;;11.25;8.95;;;;;;;15.69;nan;95442.41;5038121;28;20195;-65
2023/09/30 04:23:09;;;;;;;16.33;8.95;;;;;;;15.65;nan;95446.00;5034306;28;20230;-65
2023/09/30 04:25:36;;;;;;;9.50;8.10;;;;;;;15.58;nan;95454.91;5035106;28;20643;-67
2023/09/30 04:28:04;;;;;;;17.67;8.68;;;;;;;15.79;nan;95453.88;5039376;28;20239;-66
2023/09/30 04:30:32;;;;;;;11.10;8.00;;;;;;;15.71;nan;95460.28;5040031;28;20250;-67
2023/09/30 04:33:00;;;;;;;11.82;8.35;;;;;;;15.71;nan;95465.41;5034955;28;20210;-66
2023/09/30 04:35:30;;;;;;;16.25;8.95;;;;;;;15.65;nan;95467.34;5035993;28;20220;-65
2023/09/30 04:37:57;;;;;;;15.77;10.10;;;;;;;15.52;nan;95468.78;5034201;28;20245;-61
2023/09/30 04:40:23;;;;;;;14.02;8.13;;;;;;;15.46;nan;95466.50;5032748;28;20648;-65
2023/09/30 04:42:50;;;;;;;13.68;7.80;;;;;;;15.57;nan;95473.75;5035646;28;20215;-66
2023/09/30 04:45:19;;;;;;;10.85;7.95;;;;;;;15.63;nan;95473.44;5034360;28;20211;-67
2023/09/30 04:47:48;;;;;;;10.75;8.10;;;;;;;15.89;nan;95470.47;5039441;28;20664;-67
2023/09/30 04:50:17;;;;;;;19.33;10.02;;;;;;;16.01;nan;95469.06;5044240;28;20711;-66
2023/09/30 04:52:45;;;;;;;19.80;10.82;;;;;;;16.15;nan;95465.81;5036861;28;20302;-67
2023/09/30 04:55:15;;;;;;;14.40;9.20;;;;;;;16.21;nan;95468.09;5043591;28;20226;-67
2023/09/30 04:57:44;;;;;;;20.95;12.23;;;;;;;16.27;nan;95470.34;5044804;28;20230;-65
2023/09/30 05:00:13;;;;;;;25.92;16.25;;;;;;;16.42;nan;95471.31;5040875;28;20206;-67
2023/09/30 05:02:40;;;;;;;29.00;13.77;;;;;;;16.28;nan;95480.53;5037574;28;20673;-67
2023/09/30 05:05:07;;;;;;;62.55;23.08;;;;;;;16.66;nan;95473.50;5035558;28;20199;-66
2023/09/30 05:07:36;;;;;;;52.75;20.23;;;;;;;17.05;nan;95476.69;5038063;28;20214;-64
2023/09/30 05:10:05;;;;;;;69.30;24.38;;;;;;;17.37;nan;95480.94;5034943;28;20346;-66
2023/09/30 05:12:31;;;;;;;48.20;18.40;;;;;;;17.20;nan;95484.41;5036266;28;20284;-65
2023/09/30 05:14:59;;;;;;;29.52;14.50;;;;;;;17.06;nan;95486.06;5034819;28;20305;-63
2023/09/30 05:17:26;;;;;;;32.55;15.43;;;;;;;17.17;nan;95488.88;5033212;28;20200;-66
2023/09/30 05:19:53;;;;;;;37.35;19.05;;;;;;;17.29;nan;95488.25;5033824;28;20712;-67
2023/09/30 05:22:23;;;;;;;31.23;13.35;;;;;;;17.28;nan;95487.41;5035124;28;20223;-67
2023/09/30 05:24:51;;;;;;;19.63;10.05;;;;;;;17.41;nan;95482.44;5033910;28;20210;-66
2023/09/30 05:27:18;;;;;;;16.35;9.60;;;;;;;17.45;nan;95485.66;5033669;28;20251;-66
2023/09/30 05:29:45;;;;;;;17.52;9.85;;;;;;;16.98;nan;95492.41;5033702;28;20227;-66
2023/09/30 05:32:12;;;;;;;13.13;8.32;;;;;;;16.75;nan;95489.38;5036557;28;20671;-66
2023/09/30 05:34:39;;;;;;;18.10;8.68;;;;;;;16.91;nan;95488.50;5036529;28;20234;-67
2023/09/30 05:37:05;;;;;;;19.80;7.53;;;;;;;17.04;nan;95495.56;5036825;28;20270;-67
2023/09/30 05:39:32;;;;;;;12.70;6.90;;;;;;;17.17;nan;95501.72;5037883;28;20212;-66
2023/09/30 05:42:00;;;;;;;14.30;7.05;;;;;;;17.33;nan;95494.84;5035370;28;20196;-67
2023/09/30 05:44:27;;;;;;;15.50;8.40;;;;;;;17.46;nan;95500.19;5037879;28;20245;-67
2023/09/30 05:46:54;;;;;;;21.42;9.30;;;;;;;17.65;nan;95499.13;5033868;28;20760;-66
2023/09/30 05:49:21;;;;;;;22.95;9.45;;;;;;;17.96;nan;95506.00;5033150;28;20825;-66
2023/09/30 05:51:48;;;;;;;22.85;10.77;;;;;;;18.14;nan;95504.13;5031737;28;20587;-66
2023/09/30 05:54:14;;;;;;;19.17;8.85;;;;;;;18.28;nan;95506.78;5032056;28;21471;-66
2023/09/30 05:56:42;;;;;;;23.42;8.68;;;;;;;18.10;nan;95487.22;5033397;28;20222;-67
2023/09/30 05:59:10;;;;;;;17.50;9.93;;;;;;;18.08;nan;95504.47;5036631;28;20301;-67
2023/09/30 06:01:37;;;;;;;18.40;9.73;;;;;;;18.03;nan;95503.94;5033602;28;20196;-66
2023/09/30 06:04:05;;;;;;;12.90;8.30;;;;;;;17.95;nan;95513.78;5036680;28;20224;-66
2023/09/30 06:06:32;;;;;;;14.35;8.60;;;;;;;18.13;nan;95515.34;5035903;28;20199;-67
2023/09/30 06:08:59;;;;;;;12.55;7.72;;;;;;;18.13;nan;95510.19;5038836;28;20196;-65
2023/09/30 06:11:28;;;;;;;15.40;9.38;;;;;;;18.22;nan;95514.00;5032883;28;20270;-67
2023/09/30 06:13:55;;;;;;;33.92;10.45;;;;;;;18.03;nan;95506.50;5034455;28;20212;-63
2023/09/30 06:16:26;;;;;;;16.80;8.18;;;;;;;18.04;nan;95522.75;5035635;28;20309;-66
2023/09/30 06:18:53;;;;;;;15.73;9.85;;;;;;;18.03;nan;95516.78;5039185;28;20222;-65
2023/09/30 06:21:20;;;;;;;26.05;9.38;;;;;;;18.16;nan;95517.75;5044118;28;20573;-63
2023/09/30 06:23:48;;;;;;;21.75;8.95;;;;;;;18.31;nan;95516.88;5037919;28;20250;-66
2023/09/30 06:26:16;;;;;;;21.58;8.75;;;;;;;18.67;nan;95508.00;5035533;28;20706;-65
2023/09/30 06:28:43;;;;;;;8.45;7.57;;;;;;;19.37;nan;95519.25;5035287;28;20196;-63
2023/09/30 06:31:10;;;;;;;19.05;7.57;;;;;;;21.17;nan;95513.66;5032554;28;20223;-65
2023/09/30 06:33:39;;;;;;;14.18;7.22;;;;;;;23.14;nan;95508.09;5035174;28;20219;-66
2023/09/30 06:36:10;;;;;;;17.10;9.50;;;;;;;24.82;nan;95511.16;5038623;28;20230;-65
2023/09/30 06:38:37;;;;;;;10.07;6.72;;;;;;;25.48;nan;95511.69;5036503;28;20261;-66
2023/09/30 06:41:04;;;;;;;11.73;7.68;;;;;;;25.02;nan;95507.75;5041130;28;20294;-66
2023/09/30 06:43:32;;;;;;;21.48;12.25;;;;;;;24.06;nan;95506.97;5036680;28;20562;-68
2023/09/30 06:45:58;;;;;;;39.10;19.73;;;;;;;23.31;nan;95511.97;5035744;28;20665;-66
2023/09/30 06:48:25;;;;;;;12.00;7.32;;;;;;;23.03;nan;95506.31;5030901;28;20235;-67
2023/09/30 06:50:54;;;;;;;15.55;8.90;;;;;;;22.67;nan;95514.22;5031497;28;20227;-66
2023/09/30 06:53:21;;;;;;;9.75;8.05;;;;;;;22.36;nan;95519.06;5039035;28;20203;-65
2023/09/30 06:55:48;;;;;;;17.23;7.95;;;;;;;22.46;nan;95513.22;5033149;28;20242;-67
2023/09/30 06:58:18;;;;;;;13.45;6.78;;;;;;;22.82;nan;95513.09;5033840;28;20685;-67
2023/09/30 07:00:45;;;;;;;7.47;6.15;;;;;;;23.03;nan;95521.03;5037692;28;20199;-67
2023/09/30 07:03:15;;;;;;;15.77;9.38;;;;;;;22.98;nan;95524.00;5033501;28;20626;-66
2023/09/30 07:05:42;;;;;;;22.85;14.05;;;;;;;22.86;nan;95529.25;5036545;28;20223;-68
2023/09/30 07:08:10;;;;;;;8.02;6.80;;;;;;;22.66;nan;95526.34;5034811;28;20309;-63
2023/09/30 07:10:37;;;;;;;13.75;6.40;;;;;;;22.51;nan;95526.66;5031678;28;20222;-68
2023/09/30 07:13:05;;;;;;;16.50;6.20;;;;;;;22.84;nan;95516.41;5035785;28;20602;-66
2023/09/30 07:15:31;;;;;;;8.88;6.07;;;;;;;24.17;nan;95519.94;5034735;28;20314;-65
2023/09/30 07:17:58;;;;;;;15.77;6.55;;;;;;;25.00;nan;95522.66;5039093;28;20254;-64
2023/09/30 07:20:24;;;;;;;11.73;6.55;;;;;;;25.68;nan;95521.25;5035431;28;20206;-67
2023/09/30 07:22:52;;;;;;;10.45;6.30;;;;;;;26.37;nan;95518.66;5035096;28;20285;-67
2023/09/30 07:25:20;;;;;;;13.80;5.97;;;;;;;28.25;nan;95514.28;5035364;28;20200;-66
2023/09/30 07:27:47;;;;;;;14.52;6.95;;;;;;;30.20;nan;95512.91;5033459;28;20262;-67
2023/09/30 07:30:15;;;;;;;14.60;6.22;;;;;;;30.74;nan;95508.91;5033892;28;20743;-62
2023/09/30 07:32:42;;;;;;;10.13;5.65;;;;;;;30.60;nan;95514.81;5034817;28;20601;-67
2023/09/30 07:35:10;;;;;;;10.73;8.23;;;;;;;29.60;nan;95513.84;5031900;28;20219;-67
2023/09/30 07:37:36;;;;;;;16.58;6.70;;;;;;;28.57;nan;95511.97;5033250;28;20747;-67
2023/09/30 07:40:04;;;;;;;9.45;7.53;;;;;;;28.24;nan;95518.69;5033969;28;20759;-68
2023/09/30 07:42:33;;;;;;;9.93;6.65;;;;;;;28.36;nan;95517.50;5035294;28;20203;-64
2023/09/30 07:44:59;;;;;;;17.40;6.38;;;;;;;28.74;nan;95511.13;5033933;28;20199;-67
2023/09/30 07:47:26;;;;;;;11.77;6.22;;;;;;;30.49;nan;95509.84;5035230;28;20207;-69
2023/09/30 07:49:53;;;;;;;7.60;5.47;;;;;;;33.01;nan;95510.63;5034778;28;20223;-67
2023/09/30 07:52:19;;;;;;;11.35;6.68;;;;;;;35.39;nan;95505.47;5036778;28;20234;-65
2023/09/30 07:54:46;;;;;;;9.07;6.18;;;;;;;37.24;nan;95506.91;5038454;28;20190;-62
2023/09/30 07:57:13;;;;;;;11.55;5.68;;;;;;;38.73;nan;95504.13;5035412;28;20199;-68
2023/09/30 07:59:41;;;;;;;6.13;5.47;;;;;;;40.35;nan;95506.44;5033537;28;20196;-68
2023/09/30 08:02:08;;;;;;;15.32;6.00;;;;;;;40.71;nan;95496.72;5031971;28;20200;-67
2023/09/30 08:04:35;;;;;;;15.52;5.32;;;;;;;40.85;nan;95500.00;5030664;28;20681;-68
2023/09/30 08:07:02;;;;;;;12.23;6.40;;;;;;;41.11;nan;95500.38;5032750;28;20196;-68
2023/09/30 08:09:29;;;;;;;17.60;6.10;;;;;;;41.49;nan;95501.00;5029745;28;20204;-68
2023/09/30 08:11:56;;;;;;;6.30;5.70;;;;;;;41.88;nan;95500.25;5035026;28;20234;-70
2023/09/30 08:14:22;;;;;;;11.38;6.93;;;;;;;42.24;nan;95501.81;5032814;28;20214;-68
2023/09/30 08:16:50;;;;;;;12.02;5.13;;;;;;;42.89;nan;95501.41;5040862;28;20230;-68
2023/09/30 08:19:18;;;;;;;10.15;6.22;;;;;;;42.45;nan;95495.00;5037849;28;20281;-67
2023/09/30 08:21:45;;;;;;;8.38;5.78;;;;;;;41.31;nan;95496.59;5033794;28;20221;-66
2023/09/30 08:24:11;;;;;;;8.90;5.30;;;;;;;41.02;nan;95499.13;5034497;28;20641;-68
2023/09/30 08:26:38;;;;;;;8.82;5.00;;;;;;;40.73;nan;95498.09;5039441;28;20666;-68
2023/09/30 08:29:06;;;;;;;9.70;5.65;;;;;;;40.80;nan;95503.38;5033656;28;20208;-67
2023/09/30 08:31:32;;;;;;;15.80;5.15;;;;;;;40.13;nan;95500.75;5040052;28;20226;-67
2023/09/30 08:34:03;;;;;;;9.77;5.53;;;;;;;39.73;nan;95503.06;5037715;28;20207;-67
2023/09/30 08:36:30;;;;;;;11.10;6.70;;;;;;;39.32;nan;95502.88;5037991;28;20219;-67
2023/09/30 08:38:57;;;;;;;10.00;5.97;;;;;;;38.67;nan;95494.34;5038542;28;20210;-67
2023/09/30 08:41:33;;;;;;;11.65;5.97;;;;;;;37.83;nan;95494.56;5042085;28;20209;-69
2023/09/30 08:44:02;;;;;;;10.57;5.68;;;;;;;37.22;nan;95494.88;5042477;28;20315;-67
2023/09/30 08:46:32;;;;;;;6.68;6.05;;;;;;;36.62;nan;95491.38;5039692;28;20195;-64
2023/09/30 08:49:01;;;;;;;12.45;5.95;;;;;;;36.16;nan;95486.75;5043241;28;20236;-66
2023/09/30 08:51:30;;;;;;;10.48;6.05;;;;;;;35.65;nan;95484.47;5039046;28;20278;-68
2023/09/30 08:53:58;;;;;;;11.18;6.43;;;;;;;35.07;nan;95491.03;5034752;28;20681;-69
2023/09/30 08:56:28;;;;;;;13.70;7.30;;;;;;;32.30;nan;95482.88;5037282;28;20325;-69
2023/09/30 08:58:57;;;;;;;11.20;6.13;;;;;;;31.07;nan;95489.53;5035374;28;20227;-69
2023/09/30 09:01:25;;;;;;;9.18;6.65;;;;;;;30.49;nan;95488.88;5035444;28;20746;-69
2023/09/30 09:03:52;;;;;;;13.88;7.60;;;;;;;30.00;nan;95488.78;5038851;28;21485;-68
2023/09/30 09:06:21;;;;;;;12.02;6.72;;;;;;;29.86;nan;95492.00;5037406;28;20214;-67
2023/09/30 09:08:48;;;;;;;16.17;7.25;;;;;;;29.60;nan;95476.38;5036398;28;20294;-67
2023/09/30 09:11:15;;;;;;;7.93;7.10;;;;;;;29.83;nan;95487.09;5038847;28;20603;-67
2023/09/30 09:13:50;;;;;;;17.85;6.93;;;;;;;29.57;nan;95479.28;5034358;28;20199;-70
2023/09/30 09:16:19;;;;;;;10.10;6.55;;;;;;;29.29;nan;95471.59;5034366;28;20222;-66
2023/09/30 09:18:47;;;;;;;12.27;6.65;;;;;;;29.28;nan;95469.16;5039848;28;20769;-67
2023/09/30 09:21:15;;;;;;;6.20;5.70;;;;;;;29.31;nan;95471.44;5035627;28;20278;-61
2023/09/30 09:23:45;;;;;;;15.45;6.18;;;;;;;28.78;nan;95469.78;5041009;28;20236;-67
2023/09/30 09:26:13;;;;;;;7.07;5.93;;;;;;;28.56;nan;95475.50;5036307;28;20254;-69
2023/09/30 09:28:41;;;;;;;12.85;6.38;;;;;;;28.66;nan;95473.63;5037939;28;20594;-68
2023/09/30 09:31:22;;;;;;;12.63;6.05;;;;;;;28.76;nan;95471.72;5033709;28;20219;-66
2023/09/30 09:33:49;;;;;;;14.68;8.00;;;;;;;28.91;nan;95464.19;5035938;28;20209;-68
2023/09/30 09:36:16;;;;;;;6.60;5.03;;;;;;;28.49;nan;95470.06;5033799;28;20323;-66
2023/09/30 09:38:49;;;;;;;11.70;5.43;;;;;;;28.24;nan;95465.56;5037312;28;20282;-69
2023/09/30 09:41:17;;;;;;;7.88;4.95;;;;;;;27.81;nan;95464.47;5036372;28;20827;-71
2023/09/30 09:43:43;;;;;;;14.10;5.03;;;;;;;26.98;nan;95463.56;5031480;28;20256;-67
2023/09/30 09:46:11;;;;;;;8.40;5.35;;;;;;;26.60;nan;95458.41;5028672;28;20207;-69
2023/09/30 09:48:38;;;;;;;15.10;5.75;;;;;;;26.54;nan;95457.19;5024755;28;20195;-65
2023/09/30 09:51:07;;;;;;;8.95;5.13;;;;;;;26.14;nan;95464.31;5032070;28;20207;-66
2023/09/30 09:53:37;;;;;;;14.20;8.50;;;;;;;26.54;nan;95456.34;5032415;28;20196;-70
2023/09/30 09:56:09;;;;;;;17.70;13.57;;;;;;;26.93;nan;95450.13;5037162;28;20221;-65
2023/09/30 09:58:38;;;;;;;11.15;4.15;;;;;;;26.69;nan;95468.03;5041265;28;20195;-65
2023/09/30 10:01:06;;;;;;;9.23;4.15;;;;;;;26.32;nan;95453.09;5035771;28;20306;-64
2023/09/30 10:03:33;;;;;;;5.53;4.10;;;;;;;26.08;nan;95440.44;5033135;28;20257;-66
2023/09/30 10:06:00;;;;;;;7.03;4.90;;;;;;;26.35;nan;95450.22;5027818;28;20352;-65
2023/09/30 10:08:34;;;;;;;14.52;4.55;;;;;;;26.66;nan;95431.78;5039734;28;20207;-66
2023/09/30 10:11:02;;;;;;;7.05;4.55;;;;;;;26.50;nan;95445.38;5043230;28;20279;-65
2023/09/30 10:13:52;;;;;;;10.20;5.15;;;;;;;26.28;nan;95441.25;5049286;28;20207;-66
2023/09/30 10:16:50;;;;;;;8.45;5.03;;;;;;;26.48;nan;95436.09;5048894;28;20299;-65
2023/09/30 10:19:19;;;;;;;7.13;4.15;;;;;;;26.71;nan;95425.19;5042608;28;20199;-66
2023/09/30 10:22:25;;;;;;;11.88;4.78;;;;;;;26.53;nan;95426.03;5056325;28;20239;-65
2023/09/30 10:24:54;;;;;;;16.00;4.30;;;;;;;26.28;nan;95435.22;5049792;28;20290;-66
2023/09/30 10:27:37;;;;;;;5.55;4.55;;;;;;;26.41;nan;95431.41;5050459;28;20238;-65
2023/09/30 10:30:16;;;;;;;7.20;4.97;;;;;;;26.53;nan;95428.66;5050995;28;20203;-66
2023/09/30 10:33:14;;;;;;;8.65;4.43;;;;;;;26.75;nan;95423.09;5051533;28;20285;-64
2023/09/30 10:35:48;;;;;;;5.75;3.60;;;;;;;26.98;nan;95416.63;5046482;28;20226;-64
2023/09/30 10:38:41;;;;;;;9.98;3.88;;;;;;;26.68;nan;95414.22;5050370;28;20284;-66
2023/09/30 10:41:09;;;;;;;3.33;3.03;;;;;;;26.54;nan;95406.84;5050746;28;20265;-64
2023/09/30 10:43:37;;;;;;;7.03;4.70;;;;;;;26.36;nan;95422.38;5051009;28;20257;-65
2023/09/30 10:46:26;;;;;;;3.53;3.33;;;;;;;26.27;nan;95413.56;5050885;28;20206;-65
2023/09/30 10:48:53;;;;;;;10.95;4.30;;;;;;;26.31;nan;95417.56;5050749;28;20290;-66
2023/09/30 10:51:21;;;;;;;5.97;4.32;;;;;;;26.55;nan;95411.91;5050796;28;20260;-66
2023/09/30 10:53:51;;;;;;;9.95;3.53;;;;;;;26.66;nan;95401.34;5050753;28;20301;-66
2023/09/30 10:56:18;;;;;;;9.45;3.40;;;;;;;26.78;nan;95400.19;5050331;28;20215;-66
2023/09/30 10:58:47;;;;;;;9.70;4.63;;;;;;;26.89;nan;95396.59;5050433;28;20260;-63
2023/09/30 11:01:16;;;;;;;5.43;3.35;;;;;;;26.86;nan;95399.47;5050422;28;20207;-65
2023/09/30 11:03:43;;;;;;;12.60;3.92;;;;;;;26.84;nan;95406.63;5050419;28;20254;-65
2023/09/30 11:06:17;;;;;;;4.70;3.50;;;;;;;26.53;nan;95402.56;5050714;28;20230;-65
2023/09/30 11:08:51;;;;;;;5.00;3.65;;;;;;;26.37;nan;95396.16;5050117;28;20660;-65
2023/09/30 11:11:18;;;;;;;7.60;4.47;;;;;;;26.51;nan;95388.88;5050993;28;20202;-65
2023/09/30 11:13:44;;;;;;;9.13;3.95;;;;;;;26.41;nan;95394.09;5050382;28;20287;-68
2023/09/30 11:16:12;;;;;;;8.38;3.70;;;;;;;26.06;nan;95399.84;5050336;28;20223;-65
2023/09/30 11:18:40;;;;;;;3.90;3.50;;;;;;;25.71;nan;95401.22;5050051;28;20209;-65
2023/09/30 11:21:09;;;;;;;8.10;4.88;;;;;;;25.74;nan;95393.13;5050661;28;20211;-65
2023/09/30 11:23:37;;;;;;;14.68;3.50;;;;;;;25.75;nan;95392.16;5050204;28;20210;-67
2023/09/30 11:26:04;;;;;;;10.80;3.20;;;;;;;25.86;nan;95383.41;5050461;28;20234;-65
2023/09/30 11:28:42;;;;;;;9.85;3.65;;;;;;;25.93;nan;95368.06;5049491;28;20311;-66
2023/09/30 11:31:11;;;;;;;5.50;3.35;;;;;;;26.19;nan;95379.56;5050206;28;20258;-65
2023/09/30 11:33:56;;;;;;;5.35;3.75;;;;;;;26.29;nan;95369.94;5049640;28;20253;-65
2023/09/30 11:36:23;;;;;;;5.10;4.32;;;;;;;26.15;nan;95375.59;5049806;28;20231;-66
2023/09/30 11:38:52;;;;;;;9.45;4.50;;;;;;;26.12;nan;95373.25;5051608;28;20214;-65
2023/09/30 11:41:19;;;;;;;7.93;3.67;;;;;;;26.20;nan;95370.81;5049504;28;20537;-66
2023/09/30 11:44:04;;;;;;;7.82;4.65;;;;;;;25.93;nan;95383.69;5050139;28;20569;-67
2023/09/30 11:46:33;;;;;;;7.63;4.28;;;;;;;25.66;nan;95374.78;5048553;28;20199;-66
2023/09/30 11:49:04;;;;;;;4.45;4.05;;;;;;;25.48;nan;95362.53;5047754;28;20238;-67